createdAt,value
2022-08-17T00:01:52.857Z,33.40
2022-08-17T00:04:20.412Z,34.78
2022-08-17T00:06:49.124Z,34.60
2022-08-17T00:09:18.632Z,37.55
2022-08-17T00:12:41.741Z,30.98
2022-08-17T00:14:35.158Z,38.78
2022-08-17T00:17:03.926Z,39.38
2022-08-17T00:19:32.774Z,39.08
2022-08-17T00:22:34.027Z,36.70
2022-08-17T00:24:50.038Z,38.22
2022-08-17T00:27:17.488Z,39.90
2022-08-17T00:29:45.946Z,43.40
2022-08-17T00:33:12.093Z,45.67
2022-08-17T00:35:08.511Z,40.85
2022-08-17T00:37:35.391Z,37.60
2022-08-17T00:40:02.499Z,40.22
2022-08-17T00:42:31.285Z,36.20
2022-08-17T00:44:59.418Z,42.50
2022-08-17T00:47:26.907Z,44.55
2022-08-17T00:49:54.189Z,35.85
2022-08-17T00:52:25.110Z,40.10
2022-08-17T00:54:54.584Z,40.15
2022-08-17T00:57:30.099Z,41.35
2022-08-17T01:00:03.351Z,45.50
2022-08-17T01:02:42.347Z,36.90
2022-08-17T01:05:23.677Z,31.73
2022-08-17T01:07:53.144Z,37.15
2022-08-17T01:10:58.345Z,38.28
2022-08-17T01:13:14.076Z,37.05
2022-08-17T01:15:46.418Z,36.63
2022-08-17T01:18:14.522Z,37.60
2022-08-17T01:20:48.473Z,43.47
2022-08-17T01:23:20.565Z,44.30
2022-08-17T01:25:54.050Z,40.47
2022-08-17T01:28:53.191Z,43.33
2022-08-17T01:31:09.542Z,46.33
2022-08-17T01:33:37.479Z,48.13
2022-08-17T01:36:06.983Z,37.95
2022-08-17T01:38:38.064Z,39.60
2022-08-17T01:41:12.491Z,40.38
2022-08-17T01:43:51.103Z,40.90
2022-08-17T01:46:27.024Z,35.33
2022-08-17T01:48:55.447Z,36.72
2022-08-17T01:51:22.530Z,36.58
2022-08-17T01:53:57.544Z,41.53
2022-08-17T01:56:26.461Z,36.90
2022-08-17T01:58:53.700Z,37.33
2022-08-17T02:01:24.481Z,38.85
2022-08-17T02:03:59.006Z,44.42
2022-08-17T02:06:45.257Z,39.42
2022-08-17T02:09:23.241Z,43.17
2022-08-17T02:11:50.990Z,36.83
2022-08-17T02:14:18.131Z,39.67
2022-08-17T02:16:45.029Z,41.90
2022-08-17T02:19:15.150Z,44.25
2022-08-17T02:21:46.430Z,43.88
2022-08-17T02:24:59.360Z,38.85
2022-08-17T02:27:10.314Z,43.03
2022-08-17T02:29:37.342Z,42.35
2022-08-17T02:32:05.106Z,35.97
2022-08-17T02:34:32.797Z,34.80
2022-08-17T02:36:59.683Z,42.28
2022-08-17T02:39:26.658Z,42.75
2022-08-17T02:42:01.796Z,44.10
2022-08-17T02:44:35.427Z,48.55
2022-08-17T02:47:06.623Z,37.22
2022-08-17T02:49:33.548Z,42.00
2022-08-17T02:52:03.569Z,43.20
2022-08-17T02:54:40.395Z,37.00
2022-08-17T02:57:09.481Z,38.97
2022-08-17T02:59:36.600Z,41.47
2022-08-17T03:02:05.028Z,44.30
2022-08-17T03:04:34.883Z,45.03
2022-08-17T03:07:03.063Z,40.78
2022-08-17T03:09:30.019Z,42.58
2022-08-17T03:12:12.266Z,45.13
2022-08-17T03:14:41.676Z,41.95
2022-08-17T03:17:10.150Z,39.08
2022-08-17T03:19:42.958Z,39.13
2022-08-17T03:22:35.662Z,43.50
2022-08-17T03:24:58.072Z,41.97
2022-08-17T03:27:24.919Z,41.13
2022-08-17T03:29:51.788Z,39.97
2022-08-17T03:32:20.727Z,38.13
2022-08-17T03:34:47.930Z,39.95
2022-08-17T03:37:14.869Z,38.95
2022-08-17T03:39:41.937Z,44.45
2022-08-17T03:42:31.884Z,40.47
2022-08-17T03:45:00.774Z,40.63
2022-08-17T03:47:46.670Z,36.08
2022-08-17T03:50:20.510Z,38.47
2022-08-17T03:53:09.052Z,47.13
2022-08-17T03:55:55.849Z,44.35
2022-08-17T03:58:22.826Z,37.88
2022-08-17T04:00:51.093Z,39.42
2022-08-17T04:03:18.374Z,38.60
2022-08-17T04:05:45.286Z,36.75
2022-08-17T04:08:12.341Z,37.50
2022-08-17T04:10:44.883Z,33.95
2022-08-17T04:13:12.347Z,37.67
2022-08-17T04:15:39.275Z,38.38
2022-08-17T04:18:07.544Z,38.60
2022-08-17T04:20:35.163Z,39.17
2022-08-17T04:23:17.134Z,43.95
2022-08-17T04:25:48.454Z,39.40
2022-08-17T04:28:16.635Z,34.45
2022-08-17T04:30:45.337Z,38.50
2022-08-17T04:33:24.253Z,38.90
2022-08-17T04:35:54.597Z,32.75
2022-08-17T04:38:24.561Z,36.03
2022-08-17T04:41:11.072Z,31.80
2022-08-17T04:43:39.706Z,33.38
2022-08-17T04:46:10.697Z,31.75
2022-08-17T04:48:40.571Z,29.35
2022-08-17T04:51:13.622Z,30.83
2022-08-17T04:53:42.855Z,36.45
2022-08-17T04:56:11.528Z,24.35
2022-08-17T04:58:38.961Z,24.90
2022-08-17T05:01:07.317Z,23.50
2022-08-17T05:03:34.344Z,17.75
2022-08-17T05:06:01.322Z,24.15
2022-08-17T05:08:28.172Z,23.73
2022-08-17T05:10:55.115Z,17.42
2022-08-17T05:13:29.764Z,20.45
2022-08-17T05:16:01.682Z,19.10
2022-08-17T05:18:29.776Z,19.88
2022-08-17T05:20:57.402Z,19.17
2022-08-17T05:23:27.090Z,18.40
2022-08-17T05:26:02.562Z,17.88
2022-08-17T05:28:30.092Z,20.23
2022-08-17T05:30:59.791Z,17.02
2022-08-17T05:33:29.488Z,20.83
2022-08-17T05:35:58.744Z,19.77
2022-08-17T05:38:28.231Z,19.38
2022-08-17T05:40:55.932Z,19.65
2022-08-17T05:43:29.028Z,17.83
2022-08-17T05:46:13.660Z,19.15
2022-08-17T05:48:46.926Z,16.58
2022-08-17T05:51:34.969Z,16.20
2022-08-17T05:54:49.103Z,17.67
2022-08-17T05:57:34.706Z,17.23
2022-08-17T06:00:42.056Z,19.10
2022-08-17T06:03:24.224Z,16.88
2022-08-17T06:06:18.471Z,17.20
2022-08-17T06:09:05.088Z,13.85
2022-08-17T06:11:45.676Z,14.70
2022-08-17T06:17:56.430Z,16.27
2022-08-17T06:20:25.344Z,16.92
2022-08-17T06:26:43.383Z,12.63
2022-08-17T06:33:02.998Z,9.88
2022-08-17T06:35:37.807Z,9.30
2022-08-17T06:42:09.557Z,9.27
2022-08-17T06:45:15.143Z,9.75
2022-08-17T06:47:48.209Z,9.88
2022-08-17T06:50:20.582Z,8.50
2022-08-17T06:53:04.488Z,10.50
2022-08-17T06:55:44.258Z,8.98
2022-08-17T06:58:16.309Z,9.38
2022-08-17T07:00:47.545Z,10.90
2022-08-17T07:03:49.911Z,10.40
2022-08-17T07:06:23.273Z,11.18
2022-08-17T07:09:01.164Z,9.75
2022-08-17T07:11:54.304Z,10.98
2022-08-17T07:14:31.951Z,9.70
2022-08-17T07:17:03.074Z,10.60
2022-08-17T07:19:33.700Z,8.10
2022-08-17T07:22:05.633Z,7.15
2022-08-17T07:24:58.437Z,7.50
2022-08-17T07:27:32.499Z,9.82
2022-08-17T07:30:10.340Z,9.07
2022-08-17T07:32:53.463Z,6.13
2022-08-17T09:07:43.008Z,7.30
2022-08-17T09:10:26.846Z,11.18
2022-08-17T09:12:59.227Z,8.43
2022-08-17T09:15:34.992Z,8.35
2022-08-17T09:18:59.820Z,9.43
2022-08-17T09:21:08.221Z,7.72
2022-08-17T09:23:35.052Z,8.23
2022-08-17T09:26:22.977Z,7.25
2022-08-17T09:29:00.376Z,9.30
2022-08-17T09:31:55.782Z,8.43
2022-08-17T09:34:33.085Z,8.63
2022-08-17T09:37:18.740Z,10.38
2022-08-17T09:40:09.730Z,9.98
2022-08-17T09:42:52.696Z,7.72
2022-08-17T09:45:46.555Z,10.30
2022-08-17T09:48:19.238Z,11.52
2022-08-17T09:51:05.049Z,68.93
2022-08-17T09:53:38.195Z,74.07
2022-08-17T09:57:11.537Z,33.70
2022-08-17T09:59:56.805Z,41.15
2022-08-17T10:02:32.868Z,9.38
2022-08-17T10:05:06.779Z,9.70
2022-08-17T10:08:09.363Z,9.30
2022-08-17T10:11:05.605Z,8.02
2022-08-17T10:13:59.615Z,13.43
2022-08-17T10:16:44.036Z,8.68
2022-08-17T10:19:28.452Z,8.85
2022-08-17T10:22:34.765Z,8.85
2022-08-17T10:25:33.471Z,9.30
2022-08-17T10:28:19.883Z,9.30
2022-08-17T10:31:10.511Z,9.85
2022-08-17T10:34:04.408Z,9.43
2022-08-17T10:36:52.552Z,14.32
2022-08-17T10:39:52.001Z,7.65
2022-08-17T10:42:32.566Z,11.35
2022-08-17T10:45:15.555Z,8.02
2022-08-17T10:48:06.167Z,10.45
2022-08-17T10:50:46.391Z,8.20
2022-08-17T10:53:31.884Z,8.05
2022-08-17T10:56:14.090Z,11.05
2022-08-17T10:58:54.463Z,9.23
2022-08-17T11:01:45.479Z,9.10
2022-08-17T11:04:18.535Z,13.07
2022-08-17T11:06:53.904Z,11.85
2022-08-17T11:09:32.863Z,8.27
2022-08-17T11:12:15.645Z,10.13
2022-08-17T11:15:20.000Z,10.60
2022-08-17T11:18:21.131Z,10.02
2022-08-17T11:21:32.274Z,7.80
2022-08-17T11:24:20.736Z,12.48
2022-08-17T11:27:27.926Z,10.57
2022-08-17T11:30:33.484Z,10.77
2022-08-17T11:33:20.729Z,9.57
2022-08-17T11:35:54.465Z,9.45
2022-08-17T11:38:43.974Z,10.57
2022-08-17T11:41:18.093Z,10.82
2022-08-17T11:44:01.970Z,10.48
2022-08-17T11:47:12.151Z,10.25
2022-08-17T11:50:00.207Z,9.55
2022-08-17T11:52:46.919Z,11.68
2022-08-17T11:55:35.662Z,9.77
2022-08-17T11:58:29.291Z,10.48
2022-08-17T12:01:07.285Z,7.50
2022-08-17T12:03:34.152Z,9.32
2022-08-17T12:06:07.067Z,7.38
2022-08-17T12:08:41.844Z,7.20
2022-08-17T12:11:58.789Z,10.20
2022-08-17T12:14:40.130Z,7.78
2022-08-17T12:17:20.864Z,9.67
2022-08-17T12:20:15.198Z,8.77
2022-08-17T12:22:57.685Z,9.10
2022-08-17T12:25:37.729Z,8.60
2022-08-17T12:28:20.155Z,8.68
2022-08-17T12:30:52.563Z,9.57
2022-08-17T12:33:28.395Z,7.93
2022-08-17T12:36:08.818Z,9.07
2022-08-17T12:38:38.242Z,8.38
2022-08-17T12:41:27.381Z,10.60
2022-08-17T12:44:03.667Z,8.25
2022-08-17T12:46:46.708Z,9.68
2022-08-17T12:49:26.550Z,10.23
2022-08-17T12:52:01.385Z,8.90
2022-08-17T12:54:35.478Z,8.35
2022-08-17T12:57:12.741Z,10.80
2022-08-17T12:59:47.422Z,8.23
2022-08-17T13:02:43.269Z,10.00
2022-08-17T13:05:25.864Z,7.63
2022-08-17T13:07:53.832Z,9.00
2022-08-17T13:10:33.097Z,13.00
2022-08-17T13:13:06.205Z,6.97
2022-08-17T13:15:43.255Z,8.37
2022-08-17T13:18:42.744Z,9.55
2022-08-17T13:21:27.399Z,8.25
2022-08-17T13:24:20.073Z,7.90
2022-08-17T13:27:01.966Z,10.07
2022-08-17T13:29:41.099Z,10.00
2022-08-17T13:32:14.336Z,7.95
2022-08-17T13:35:12.132Z,8.10
2022-08-17T13:37:38.246Z,6.53
2022-08-17T13:40:10.588Z,7.75
2022-08-17T13:42:51.780Z,8.85
2022-08-17T13:45:36.460Z,7.53
2022-08-17T13:48:24.969Z,8.68
2022-08-17T13:50:54.865Z,7.13
2022-08-17T13:53:31.054Z,9.68
2022-08-17T13:56:37.913Z,7.65
2022-08-17T13:59:06.118Z,8.57
2022-08-17T14:01:38.449Z,7.95
2022-08-17T14:04:12.658Z,9.13
2022-08-17T14:07:08.769Z,8.48
2022-08-17T14:09:39.862Z,10.13
2022-08-17T14:12:11.622Z,8.98
2022-08-17T14:14:39.439Z,9.32
2022-08-17T14:17:07.853Z,10.30
2022-08-17T14:19:36.950Z,9.63
2022-08-17T14:22:06.419Z,9.45
2022-08-17T14:24:38.997Z,7.68
2022-08-17T14:27:09.552Z,11.02
2022-08-17T14:29:36.945Z,9.93
2022-08-17T14:32:21.221Z,9.68
2022-08-17T14:34:49.756Z,10.57
2022-08-17T14:37:21.337Z,8.18
2022-08-17T14:39:48.266Z,7.00
2022-08-17T14:42:15.653Z,7.38
2022-08-17T14:44:42.633Z,7.40
2022-08-17T14:47:15.084Z,8.10
2022-08-17T14:49:42.353Z,8.50
2022-08-17T14:52:12.245Z,6.65
2022-08-17T14:54:42.487Z,7.85
2022-08-17T14:57:24.492Z,7.25
2022-08-17T15:00:00.037Z,7.32
2022-08-17T15:02:29.847Z,9.23
2022-08-17T15:05:02.614Z,8.13
2022-08-17T15:07:30.914Z,10.13
2022-08-17T15:10:00.475Z,8.90
2022-08-17T15:12:32.713Z,7.25
2022-08-17T15:15:00.936Z,7.50
2022-08-17T15:17:45.021Z,9.50
2022-08-17T15:20:16.241Z,6.55
2022-08-17T15:22:44.325Z,8.70
2022-08-17T15:25:12.905Z,7.43
2022-08-17T15:27:40.511Z,7.55
2022-08-17T15:30:10.165Z,7.32
2022-08-17T15:32:39.472Z,6.97
2022-08-17T15:35:11.504Z,9.52
2022-08-17T15:37:39.036Z,7.65
2022-08-17T15:40:08.201Z,7.30
2022-08-17T15:42:35.622Z,7.40
2022-08-17T15:45:25.204Z,7.18
2022-08-17T15:47:53.243Z,8.00
2022-08-17T15:50:20.272Z,8.63
2022-08-17T15:52:47.670Z,6.85
2022-08-17T15:55:15.174Z,8.70
2022-08-17T15:57:42.202Z,9.43
2022-08-17T16:00:09.900Z,11.18
2022-08-17T16:03:46.253Z,10.48
2022-08-17T16:05:27.348Z,10.65
2022-08-17T16:07:55.962Z,9.77
2022-08-17T16:10:33.973Z,10.50
2022-08-17T16:13:03.056Z,8.73
2022-08-17T16:15:31.682Z,9.52
2022-08-17T16:17:58.846Z,9.15
2022-08-17T16:20:25.949Z,9.20
2022-08-17T16:22:54.526Z,11.25
2022-08-17T16:25:49.714Z,13.43
2022-08-17T16:28:15.971Z,12.60
2022-08-17T16:30:43.427Z,13.63
2022-08-17T16:33:15.252Z,10.68
2022-08-17T16:35:43.167Z,13.23
2022-08-17T16:38:10.991Z,12.52
2022-08-17T16:40:38.113Z,14.63
2022-08-17T16:43:10.685Z,15.55
2022-08-17T16:45:40.528Z,13.82
2022-08-17T16:48:08.911Z,17.67
2022-08-17T16:50:36.525Z,13.23
2022-08-17T16:53:10.870Z,15.52
2022-08-17T16:55:38.665Z,14.98
2022-08-17T16:58:06.372Z,17.90
2022-08-17T17:00:34.091Z,18.20
2022-08-17T17:03:19.033Z,17.90
2022-08-17T17:05:59.249Z,17.05
2022-08-17T17:09:00.580Z,16.58
2022-08-17T17:11:35.570Z,18.58
2022-08-17T17:14:06.769Z,18.38
2022-08-17T17:16:47.721Z,20.02
2022-08-17T17:19:35.174Z,19.02
2022-08-17T17:22:19.455Z,17.15
2022-08-17T17:24:58.425Z,19.77
2022-08-17T17:27:47.391Z,16.25
2022-08-17T17:30:24.263Z,15.50
2022-08-17T17:33:04.661Z,17.00
2022-08-17T17:36:00.215Z,15.50
2022-08-17T17:38:34.345Z,19.33
2022-08-17T17:41:05.592Z,15.45
2022-08-17T17:43:39.659Z,14.88
2022-08-17T17:46:29.115Z,19.02
2022-08-17T17:49:00.190Z,16.95
2022-08-17T17:52:06.745Z,19.60
2022-08-17T17:55:02.633Z,13.60
2022-08-17T17:57:29.499Z,20.40
2022-08-17T18:00:23.675Z,16.83
2022-08-17T18:03:09.557Z,16.08
2022-08-17T18:05:45.581Z,18.92
2022-08-17T18:08:43.403Z,17.48
2022-08-17T18:11:25.143Z,18.45
2022-08-17T18:13:59.724Z,21.38
2022-08-17T18:16:29.918Z,20.40
2022-08-17T18:18:59.919Z,21.52
2022-08-17T18:21:38.010Z,20.70
2022-08-17T18:24:08.109Z,23.40
2022-08-17T18:26:47.044Z,21.65
2022-08-17T18:29:32.101Z,22.92
2022-08-17T18:32:36.069Z,21.90
2022-08-17T18:35:09.148Z,30.08
2022-08-17T18:37:43.779Z,26.77
2022-08-17T18:40:17.011Z,28.90
2022-08-17T18:42:46.901Z,26.48
2022-08-17T18:45:30.184Z,25.52
2022-08-17T18:47:57.086Z,27.55
2022-08-17T18:50:27.889Z,26.02
2022-08-17T18:53:14.821Z,26.55
2022-08-17T18:55:41.801Z,26.25
2022-08-17T18:58:21.350Z,31.45
2022-08-17T19:00:49.959Z,30.77
2022-08-17T19:03:18.021Z,30.60
2022-08-17T19:05:56.690Z,34.05
2022-08-17T19:08:29.408Z,37.13
2022-08-17T19:11:01.422Z,31.77
2022-08-17T19:13:37.061Z,34.10
2022-08-17T19:16:13.908Z,34.83
2022-08-17T19:18:45.059Z,34.05
2022-08-17T19:21:34.611Z,31.08
2022-08-17T19:24:20.592Z,27.70
2022-08-17T19:27:00.892Z,26.67
2022-08-17T19:29:50.787Z,25.90
2022-08-17T19:32:21.667Z,28.30
2022-08-17T19:34:49.286Z,29.05
2022-08-17T19:37:37.921Z,29.10
2022-08-17T19:40:52.942Z,29.58
2022-08-17T19:44:17.078Z,28.35
2022-08-17T19:47:10.462Z,35.63
2022-08-17T19:50:08.964Z,30.17
2022-08-17T19:52:58.104Z,31.13
2022-08-17T19:55:32.116Z,33.83
2022-08-17T20:00:34.465Z,32.55
2022-08-17T20:03:22.269Z,35.28
2022-08-17T20:06:11.958Z,32.00
2022-08-17T20:08:47.124Z,33.80
2022-08-17T20:11:37.960Z,35.33
2022-08-17T20:14:15.154Z,34.55
2022-08-17T20:16:42.169Z,32.50
2022-08-17T20:19:23.484Z,34.70
2022-08-17T20:22:00.054Z,38.22
2022-08-17T20:24:44.064Z,35.40
2022-08-17T20:27:20.321Z,39.70
2022-08-17T20:30:12.278Z,36.42
2022-08-17T20:32:49.208Z,40.90
2022-08-17T20:35:36.698Z,37.40
2022-08-17T20:38:11.109Z,39.53
2022-08-17T20:41:00.444Z,44.83
2022-08-17T20:43:33.059Z,44.15
2022-08-17T20:46:24.377Z,45.22
2022-08-17T20:48:55.526Z,45.42
2022-08-17T20:51:39.601Z,42.75
2022-08-17T20:54:18.571Z,41.55
2022-08-17T20:56:46.565Z,41.83
2022-08-17T20:59:25.683Z,42.65
2022-08-17T21:02:18.829Z,44.13
2022-08-17T21:05:00.830Z,44.45
2022-08-17T21:07:45.068Z,43.15
2022-08-17T21:10:14.056Z,45.35
2022-08-17T21:12:48.067Z,43.33
2022-08-17T21:15:28.644Z,49.13
2022-08-17T21:18:14.237Z,46.17
2022-08-17T21:21:18.376Z,46.15
2022-08-17T21:24:26.713Z,44.60
2022-08-17T21:27:32.622Z,40.60
2022-08-17T21:30:05.640Z,40.03
2022-08-17T21:35:07.649Z,47.55
2022-08-17T21:37:46.444Z,44.45
2022-08-17T21:40:13.427Z,43.00
2022-08-17T21:42:47.938Z,36.30
2022-08-17T21:45:43.015Z,41.85
2022-08-17T21:48:11.064Z,51.80
2022-08-17T21:50:40.755Z,46.08
2022-08-17T21:53:11.685Z,46.47
2022-08-17T21:55:38.873Z,52.92
2022-08-17T21:58:19.273Z,46.85
2022-08-17T22:00:46.251Z,51.42
2022-08-17T22:03:24.724Z,47.25
2022-08-17T22:05:51.790Z,40.22
2022-08-17T22:08:24.593Z,38.60
2022-08-17T22:11:01.293Z,37.47
2022-08-17T22:13:29.591Z,42.50
2022-08-17T22:16:15.369Z,39.53
2022-08-17T22:18:57.749Z,40.72
2022-08-17T22:21:25.451Z,38.92
2022-08-17T22:24:06.019Z,41.00
2022-08-17T22:26:59.559Z,36.10
2022-08-17T22:29:47.901Z,41.83
2022-08-17T22:32:51.461Z,40.67
2022-08-17T22:35:27.304Z,45.70
2022-08-17T22:37:54.700Z,37.13
2022-08-17T22:40:39.435Z,43.17
2022-08-17T22:43:12.002Z,37.65
2022-08-17T22:45:51.522Z,40.72
2022-08-17T22:48:27.258Z,42.25
2022-08-17T22:51:12.605Z,36.17
2022-08-17T22:54:09.041Z,35.58
2022-08-17T22:56:55.704Z,37.75
2022-08-17T22:59:58.318Z,35.35
2022-08-17T23:02:29.749Z,37.58
2022-08-17T23:05:13.081Z,37.92
2022-08-17T23:07:43.283Z,35.97
2022-08-17T23:10:11.351Z,35.67
2022-08-17T23:12:39.791Z,35.30
2022-08-17T23:15:15.077Z,38.60
2022-08-17T23:17:42.568Z,40.75
2022-08-17T23:20:14.305Z,41.70
2022-08-17T23:22:52.067Z,38.28
2022-08-17T23:25:28.108Z,37.22
2022-08-17T23:27:57.489Z,37.33
2022-08-17T23:30:25.750Z,39.28
2022-08-17T23:32:54.440Z,41.22
2022-08-17T23:35:40.489Z,41.10
2022-08-17T23:38:12.373Z,38.10
2022-08-17T23:40:40.535Z,39.50
2022-08-17T23:43:24.021Z,35.08
2022-08-17T23:45:57.645Z,41.55
2022-08-17T23:48:28.632Z,41.35
2022-08-17T23:51:09.275Z,39.17
2022-08-17T23:53:39.151Z,42.10
2022-08-17T23:56:10.331Z,38.13
2022-08-17T23:58:39.976Z,36.83
